sensor_id;sensor_type;location;lat;lon;timestamp;pressure;altitude;pressure_sealevel;temperature;humidity
29371;BME280;16357;52.188;7.838;2023-08-17T00:01:10;101252.66;;;20.34;58.16
29371;BME280;16357;52.188;7.838;2023-08-17T00:03:37;101244.91;;;20.31;57.78
29371;BME280;16357;52.188;7.838;2023-08-17T00:06:03;101239.63;;;20.30;58.13
29371;BME280;16357;52.188;7.838;2023-08-17T00:08:30;101262.69;;;20.27;58.10
29371;BME280;16357;52.188;7.838;2023-08-17T00:10:56;101248.66;;;20.24;58.12
29371;BME280;16357;52.188;7.838;2023-08-17T00:13:22;101242.78;;;20.20;58.33
29371;BME280;16357;52.188;7.838;2023-08-17T00:15:49;101238.59;;;20.17;58.29
29371;BME280;16357;52.188;7.838;2023-08-17T00:18:15;101218.25;;;20.13;58.51
29371;BME280;16357;52.188;7.838;2023-08-17T00:20:42;101217.63;;;20.11;58.24
29371;BME280;16357;52.188;7.838;2023-08-17T00:23:08;101220.56;;;20.10;58.32
29371;BME280;16357;52.188;7.838;2023-08-17T00:25:35;101217.19;;;20.08;58.33
29371;BME280;16357;52.188;7.838;2023-08-17T00:28:01;101219.28;;;20.06;58.31
29371;BME280;16357;52.188;7.838;2023-08-17T00:30:28;101218.69;;;20.04;58.47
29371;BME280;16357;52.188;7.838;2023-08-17T00:32:54;101219.72;;;20.03;58.18
29371;BME280;16357;52.188;7.838;2023-08-17T00:35:21;101228.94;;;20.02;58.72
29371;BME280;16357;52.188;7.838;2023-08-17T00:37:47;101230.19;;;19.99;58.80
29371;BME280;16357;52.188;7.838;2023-08-17T00:40:13;101232.91;;;19.99;58.71
29371;BME280;16357;52.188;7.838;2023-08-17T00:42:40;101227.47;;;19.99;58.94
29371;BME280;16357;52.188;7.838;2023-08-17T00:45:07;101221.38;;;19.97;58.83
29371;BME280;16357;52.188;7.838;2023-08-17T00:47:34;101216.75;;;19.98;58.85
29371;BME280;16357;52.188;7.838;2023-08-17T00:50:00;101209.44;;;19.98;59.00
29371;BME280;16357;52.188;7.838;2023-08-17T00:52:27;101189.53;;;19.98;58.79
29371;BME280;16357;52.188;7.838;2023-08-17T00:54:55;101205.88;;;19.98;58.87
29371;BME280;16357;52.188;7.838;2023-08-17T00:57:22;101203.97;;;19.98;59.01
29371;BME280;16357;52.188;7.838;2023-08-17T00:59:50;101195.81;;;19.98;59.04
29371;BME280;16357;52.188;7.838;2023-08-17T01:02:31;101206.69;;;19.98;59.00
29371;BME280;16357;52.188;7.838;2023-08-17T01:04:58;101208.41;;;19.99;58.92
29371;BME280;16357;52.188;7.838;2023-08-17T01:07:24;101221.78;;;20.01;58.83
29371;BME280;16357;52.188;7.838;2023-08-17T01:09:51;101195.63;;;20.00;58.80
29371;BME280;16357;52.188;7.838;2023-08-17T01:12:44;101198.97;;;20.02;58.96
29371;BME280;16357;52.188;7.838;2023-08-17T01:15:17;101200.88;;;20.01;58.98
29371;BME280;16357;52.188;7.838;2023-08-17T01:17:58;101211.75;;;20.01;59.01
29371;BME280;16357;52.188;7.838;2023-08-17T01:20:27;101201.69;;;20.02;59.11
29371;BME280;16357;52.188;7.838;2023-08-17T01:22:55;101212.59;;;20.02;59.17
29371;BME280;16357;52.188;7.838;2023-08-17T01:25:23;101195.41;;;20.01;59.16
29371;BME280;16357;52.188;7.838;2023-08-17T01:27:50;101201.69;;;20.02;59.02
29371;BME280;16357;52.188;7.838;2023-08-17T01:30:17;101199.81;;;20.02;58.95
29371;BME280;16357;52.188;7.838;2023-08-17T01:32:52;101215.09;;;20.03;58.97
29371;BME280;16357;52.188;7.838;2023-08-17T01:35:28;101210.50;;;20.04;58.99
29371;BME280;16357;52.188;7.838;2023-08-17T01:38:01;101226.63;;;20.05;58.95
29371;BME280;16357;52.188;7.838;2023-08-17T01:40:31;101235.44;;;20.07;58.93
29371;BME280;16357;52.188;7.838;2023-08-17T01:43:01;101240.66;;;20.09;58.98
29371;BME280;16357;52.188;7.838;2023-08-17T01:45:28;101248.63;;;20.10;59.07
29371;BME280;16357;52.188;7.838;2023-08-17T01:47:55;101244.66;;;20.13;59.04
29371;BME280;16357;52.188;7.838;2023-08-17T01:50:21;101258.69;;;20.16;59.08
29371;BME280;16357;52.188;7.838;2023-08-17T01:52:48;101259.97;;;20.21;58.77
29371;BME280;16357;52.188;7.838;2023-08-17T01:55:16;101260.19;;;20.26;58.60
29371;BME280;16357;52.188;7.838;2023-08-17T01:57:43;101256.00;;;20.30;58.43
29371;BME280;16357;52.188;7.838;2023-08-17T02:00:10;101257.25;;;20.34;58.55
29371;BME280;16357;52.188;7.838;2023-08-17T02:02:37;101244.03;;;20.37;58.52
29371;BME280;16357;52.188;7.838;2023-08-17T02:05:04;101244.50;;;20.41;58.17
29371;BME280;16357;52.188;7.838;2023-08-17T02:07:30;101234.81;;;20.45;58.21
29371;BME280;16357;52.188;7.838;2023-08-17T02:09:57;101238.19;;;20.47;57.99
29371;BME280;16357;52.188;7.838;2023-08-17T02:12:23;101243.22;;;20.50;57.88
29371;BME280;16357;52.188;7.838;2023-08-17T02:14:49;101251.19;;;20.52;58.04
29371;BME280;16357;52.188;7.838;2023-08-17T02:17:16;101258.31;;;20.53;57.83
29371;BME280;16357;52.188;7.838;2023-08-17T02:19:42;101249.97;;;20.54;57.89
29371;BME280;16357;52.188;7.838;2023-08-17T02:22:09;101244.53;;;20.54;57.51
29371;BME280;16357;52.188;7.838;2023-08-17T02:24:36;101248.25;;;20.53;57.56
29371;BME280;16357;52.188;7.838;2023-08-17T02:27:02;101243.03;;;20.52;57.54
29371;BME280;16357;52.188;7.838;2023-08-17T02:29:29;101246.38;;;20.47;57.93
29371;BME280;16357;52.188;7.838;2023-08-17T02:31:55;101239.44;;;20.45;57.78
29371;BME280;16357;52.188;7.838;2023-08-17T02:34:22;101248.03;;;20.42;57.72
29371;BME280;16357;52.188;7.838;2023-08-17T02:36:48;101241.97;;;20.39;57.83
29371;BME280;16357;52.188;7.838;2023-08-17T02:39:14;101232.13;;;20.38;57.82
29371;BME280;16357;52.188;7.838;2023-08-17T02:41:41;101229.59;;;20.37;57.75
29371;BME280;16357;52.188;7.838;2023-08-17T02:44:07;101230.41;;;20.37;57.79
29371;BME280;16357;52.188;7.838;2023-08-17T02:46:34;101229.81;;;20.35;57.78
29371;BME280;16357;52.188;7.838;2023-08-17T02:49:00;101230.66;;;20.36;57.73
29371;BME280;16357;52.188;7.838;2023-08-17T02:51:27;101226.88;;;20.37;57.82
29371;BME280;16357;52.188;7.838;2023-08-17T02:53:53;101231.47;;;20.36;57.77
29371;BME280;16357;52.188;7.838;2023-08-17T02:56:20;101225.19;;;20.36;57.73
29371;BME280;16357;52.188;7.838;2023-08-17T02:58:46;101236.09;;;20.36;58.16
29371;BME280;16357;52.188;7.838;2023-08-17T03:01:12;101241.56;;;20.36;57.86
29371;BME280;16357;52.188;7.838;2023-08-17T03:03:39;101238.81;;;20.36;57.98
29371;BME280;16357;52.188;7.838;2023-08-17T03:06:07;101222.66;;;20.34;58.13
29371;BME280;16357;52.188;7.838;2023-08-17T03:08:34;101230.66;;;20.36;58.56
29371;BME280;16357;52.188;7.838;2023-08-17T03:11:00;101244.47;;;20.34;57.92
29371;BME280;16357;52.188;7.838;2023-08-17T03:13:27;101250.75;;;20.35;57.91
29371;BME280;16357;52.188;7.838;2023-08-17T03:15:54;101238.81;;;20.36;58.33
29371;BME280;16357;52.188;7.838;2023-08-17T03:18:20;101230.41;;;20.37;58.26
29371;BME280;16357;52.188;7.838;2023-08-17T03:20:47;101231.28;;;20.38;58.61
29371;BME280;16357;52.188;7.838;2023-08-17T03:23:13;101228.56;;;20.38;58.55
29371;BME280;16357;52.188;7.838;2023-08-17T03:25:40;101220.78;;;20.35;58.46
29371;BME280;16357;52.188;7.838;2023-08-17T03:28:07;101219.53;;;20.31;58.46
29371;BME280;16357;52.188;7.838;2023-08-17T03:30:33;101224.78;;;20.26;58.67
29371;BME280;16357;52.188;7.838;2023-08-17T03:33:00;101224.75;;;20.19;59.13
29371;BME280;16357;52.188;7.838;2023-08-17T03:35:26;101221.63;;;20.15;59.37
29371;BME280;16357;52.188;7.838;2023-08-17T03:37:53;101213.03;;;20.12;59.40
29371;BME280;16357;52.188;7.838;2023-08-17T03:40:19;101204.63;;;20.07;59.44
29371;BME280;16357;52.188;7.838;2023-08-17T03:42:46;101215.09;;;20.03;59.54
29371;BME280;16357;52.188;7.838;2023-08-17T03:45:12;101213.00;;;19.99;59.91
29371;BME280;16357;52.188;7.838;2023-08-17T03:47:38;101214.47;;;19.94;60.32
29371;BME280;16357;52.188;7.838;2023-08-17T03:50:05;101219.50;;;19.91;60.02
29371;BME280;16357;52.188;7.838;2023-08-17T03:52:32;101214.44;;;19.88;60.26
29371;BME280;16357;52.188;7.838;2023-08-17T03:54:58;101218.44;;;19.85;60.30
29371;BME280;16357;52.188;7.838;2023-08-17T03:57:25;101218.81;;;19.82;60.54
29371;BME280;16357;52.188;7.838;2023-08-17T03:59:51;101212.97;;;19.79;60.62
29371;BME280;16357;52.188;7.838;2023-08-17T04:02:18;101216.75;;;19.78;60.47
29371;BME280;16357;52.188;7.838;2023-08-17T04:04:44;101213.56;;;19.74;61.36
29371;BME280;16357;52.188;7.838;2023-08-17T04:07:11;101213.97;;;19.71;60.80
29371;BME280;16357;52.188;7.838;2023-08-17T04:09:37;101210.00;;;19.67;61.62
29371;BME280;16357;52.188;7.838;2023-08-17T04:12:04;101206.81;;;19.63;61.82
29371;BME280;16357;52.188;7.838;2023-08-17T04:14:32;101209.94;;;19.60;61.73
29371;BME280;16357;52.188;7.838;2023-08-17T04:16:58;101208.66;;;19.56;62.33
29371;BME280;16357;52.188;7.838;2023-08-17T04:19:25;101217.47;;;19.51;62.70
29371;BME280;16357;52.188;7.838;2023-08-17T04:21:51;101212.81;;;19.45;62.69
29371;BME280;16357;52.188;7.838;2023-08-17T04:24:17;101210.72;;;19.41;63.13
29371;BME280;16357;52.188;7.838;2023-08-17T04:26:44;101209.63;;;19.35;63.33
29371;BME280;16357;52.188;7.838;2023-08-17T04:29:10;101211.50;;;19.28;63.54
29371;BME280;16357;52.188;7.838;2023-08-17T04:31:36;101209.56;;;19.22;64.02
29371;BME280;16357;52.188;7.838;2023-08-17T04:34:03;101202.03;;;19.17;63.88
29371;BME280;16357;52.188;7.838;2023-08-17T04:36:29;101217.06;;;19.13;64.00
29371;BME280;16357;52.188;7.838;2023-08-17T04:38:56;101213.09;;;19.09;64.42
29371;BME280;16357;52.188;7.838;2023-08-17T04:41:22;101226.03;;;19.07;64.44
29371;BME280;16357;52.188;7.838;2023-08-17T04:43:49;101219.31;;;19.03;64.96
29371;BME280;16357;52.188;7.838;2023-08-17T04:46:15;101226.63;;;19.02;65.25
29371;BME280;16357;52.188;7.838;2023-08-17T04:48:42;101220.53;;;19.00;65.75
29371;BME280;16357;52.188;7.838;2023-08-17T04:51:08;101220.94;;;18.97;65.83
29371;BME280;16357;52.188;7.838;2023-08-17T04:53:35;101223.03;;;18.95;65.69
29371;BME280;16357;52.188;7.838;2023-08-17T04:56:02;101232.41;;;18.93;65.54
29371;BME280;16357;52.188;7.838;2023-08-17T04:58:29;101216.72;;;18.88;65.75
29371;BME280;16357;52.188;7.838;2023-08-17T05:00:55;101220.03;;;18.83;65.45
29371;BME280;16357;52.188;7.838;2023-08-17T05:03:21;101212.28;;;18.80;66.01
29371;BME280;16357;52.188;7.838;2023-08-17T05:05:59;101220.84;;;18.77;66.35
29371;BME280;16357;52.188;7.838;2023-08-17T05:08:25;101219.38;;;18.75;66.34
29371;BME280;16357;52.188;7.838;2023-08-17T05:10:51;101220.56;;;18.72;66.64
29371;BME280;16357;52.188;7.838;2023-08-17T05:13:19;101226.84;;;18.73;66.51
29371;BME280;16357;52.188;7.838;2023-08-17T05:15:45;101221.59;;;18.71;66.89
29371;BME280;16357;52.188;7.838;2023-08-17T05:18:12;101228.72;;;18.72;67.01
29371;BME280;16357;52.188;7.838;2023-08-17T05:20:38;101225.13;;;18.72;67.11
29371;BME280;16357;52.188;7.838;2023-08-17T05:23:05;101221.59;;;18.71;67.18
29371;BME280;16357;52.188;7.838;2023-08-17T05:25:31;101229.56;;;18.73;66.84
29371;BME280;16357;52.188;7.838;2023-08-17T05:27:58;101227.66;;;18.73;67.35
29371;BME280;16357;52.188;7.838;2023-08-17T05:30:24;101222.91;;;18.75;67.18
29371;BME280;16357;52.188;7.838;2023-08-17T05:32:50;101229.19;;;18.76;67.06
29371;BME280;16357;52.188;7.838;2023-08-17T05:35:17;101220.84;;;18.77;67.33
29371;BME280;16357;52.188;7.838;2023-08-17T05:37:43;101224.59;;;18.76;67.50
29371;BME280;16357;52.188;7.838;2023-08-17T05:40:10;101226.28;;;18.77;67.80
29371;BME280;16357;52.188;7.838;2023-08-17T05:42:36;101226.28;;;18.77;67.85
29371;BME280;16357;52.188;7.838;2023-08-17T05:45:03;101217.25;;;18.77;67.72
29371;BME280;16357;52.188;7.838;2023-08-17T05:47:30;101225.41;;;18.77;68.03
29371;BME280;16357;52.188;7.838;2023-08-17T05:49:57;101221.88;;;18.76;67.84
29371;BME280;16357;52.188;7.838;2023-08-17T05:52:23;101223.75;;;18.76;68.09
29371;BME280;16357;52.188;7.838;2023-08-17T05:54:49;101223.06;;;18.74;67.88
29371;BME280;16357;52.188;7.838;2023-08-17T05:57:16;101230.22;;;18.75;68.06
29371;BME280;16357;52.188;7.838;2023-08-17T05:59:42;101220.56;;;18.72;68.02
29371;BME280;16357;52.188;7.838;2023-08-17T06:02:09;101235.81;;;18.73;67.51
29371;BME280;16357;52.188;7.838;2023-08-17T06:04:35;101231.44;;;18.72;68.02
29371;BME280;16357;52.188;7.838;2023-08-17T06:07:02;101227.84;;;18.72;68.02
29371;BME280;16357;52.188;7.838;2023-08-17T06:09:28;101229.75;;;18.71;68.06
29371;BME280;16357;52.188;7.838;2023-08-17T06:11:54;101226.00;;;18.72;68.20
29371;BME280;16357;52.188;7.838;2023-08-17T06:14:21;101231.44;;;18.72;68.08
29371;BME280;16357;52.188;7.838;2023-08-17T06:16:48;101211.53;;;18.72;67.97
29371;BME280;16357;52.188;7.838;2023-08-17T06:19:14;101209.69;;;18.72;68.12
29371;BME280;16357;52.188;7.838;2023-08-17T06:21:41;101221.59;;;18.71;68.18
29371;BME280;16357;52.188;7.838;2023-08-17T06:24:07;101222.41;;;18.72;68.08
29371;BME280;16357;52.188;7.838;2023-08-17T06:26:34;101222.41;;;18.72;68.19
29371;BME280;16357;52.188;7.838;2023-08-17T06:29:00;101224.94;;;18.73;68.33
29371;BME280;16357;52.188;7.838;2023-08-17T06:31:29;101226.63;;;18.74;68.29
29371;BME280;16357;52.188;7.838;2023-08-17T06:33:56;101224.59;;;18.76;68.31
29371;BME280;16357;52.188;7.838;2023-08-17T06:36:23;101224.19;;;18.79;68.15
29371;BME280;16357;52.188;7.838;2023-08-17T06:38:49;101225.88;;;18.80;68.16
29371;BME280;16357;52.188;7.838;2023-08-17T06:41:16;101223.78;;;18.82;68.08
29371;BME280;16357;52.188;7.838;2023-08-17T06:43:43;101216.28;;;18.84;68.36
29371;BME280;16357;52.188;7.838;2023-08-17T06:46:09;101217.75;;;18.87;68.14
29371;BME280;16357;52.188;7.838;2023-08-17T06:48:36;101211.06;;;18.90;68.13
29371;BME280;16357;52.188;7.838;2023-08-17T06:51:02;101211.91;;;18.90;67.91
29371;BME280;16357;52.188;7.838;2023-08-17T06:53:31;101207.94;;;18.93;67.98
29371;BME280;16357;52.188;7.838;2023-08-17T06:55:57;101206.28;;;18.92;67.93
29371;BME280;16357;52.188;7.838;2023-08-17T06:58:28;101200.84;;;18.92;68.05
29371;BME280;16357;52.188;7.838;2023-08-17T07:00:54;101208.81;;;18.93;67.78
29371;BME280;16357;52.188;7.838;2023-08-17T07:03:21;101209.66;;;18.94;68.49
29371;BME280;16357;52.188;7.838;2023-08-17T07:05:47;101214.69;;;18.97;68.44
29371;BME280;16357;52.188;7.838;2023-08-17T07:08:14;101206.13;;;19.00;68.77
29371;BME280;16357;52.188;7.838;2023-08-17T07:10:40;101235.22;;;19.06;68.61
29371;BME280;16357;52.188;7.838;2023-08-17T07:13:07;101218.94;;;19.13;68.83
29371;BME280;16357;52.188;7.838;2023-08-17T07:15:33;101222.75;;;19.18;68.81
29371;BME280;16357;52.188;7.838;2023-08-17T07:18:00;101228.22;;;19.25;68.66
29371;BME280;16357;52.188;7.838;2023-08-17T07:20:27;101239.13;;;19.32;68.31
29371;BME280;16357;52.188;7.838;2023-08-17T07:22:53;101234.34;;;19.40;68.14
29371;BME280;16357;52.188;7.838;2023-08-17T07:25:19;101221.84;;;19.46;68.32
29371;BME280;16357;52.188;7.838;2023-08-17T07:27:46;101225.81;;;19.50;67.97
29371;BME280;16357;52.188;7.838;2023-08-17T07:30:13;101227.72;;;19.56;67.73
29371;BME280;16357;52.188;7.838;2023-08-17T07:32:39;101230.66;;;19.61;67.51
29371;BME280;16357;52.188;7.838;2023-08-17T07:35:06;101238.06;;;19.67;67.82
29371;BME280;16357;52.188;7.838;2023-08-17T07:37:33;101233.47;;;19.74;67.65
29371;BME280;16357;52.188;7.838;2023-08-17T07:40:00;101230.97;;;19.80;67.49
29371;BME280;16357;52.188;7.838;2023-08-17T07:42:29;101245.25;;;19.88;67.57
29371;BME280;16357;52.188;7.838;2023-08-17T07:44:56;101248.81;;;19.95;67.53
29371;BME280;16357;52.188;7.838;2023-08-17T07:47:23;101262.88;;;20.06;67.07
29371;BME280;16357;52.188;7.838;2023-08-17T07:49:49;101251.59;;;20.15;66.85
29371;BME280;16357;52.188;7.838;2023-08-17T07:52:16;101253.03;;;20.25;66.37
29371;BME280;16357;52.188;7.838;2023-08-17T07:54:42;101243.63;;;20.34;66.18
29371;BME280;16357;52.188;7.838;2023-08-17T07:57:09;101238.81;;;20.43;66.17
29371;BME280;16357;52.188;7.838;2023-08-17T07:59:35;101242.38;;;20.50;65.65
29371;BME280;16357;52.188;7.838;2023-08-17T08:02:02;101253.09;;;20.58;66.06
29371;BME280;16357;52.188;7.838;2023-08-17T08:04:28;101259.41;;;20.65;65.59
29371;BME280;16357;52.188;7.838;2023-08-17T08:06:54;101260.03;;;20.74;65.83
29371;BME280;16357;52.188;7.838;2023-08-17T08:09:21;101253.72;;;20.80;65.88
29371;BME280;16357;52.188;7.838;2023-08-17T08:11:47;101254.53;;;20.87;65.01
29371;BME280;16357;52.188;7.838;2023-08-17T08:14:14;101252.03;;;20.92;64.54
29371;BME280;16357;52.188;7.838;2023-08-17T08:16:40;101263.78;;;20.99;64.84
29371;BME280;16357;52.188;7.838;2023-08-17T08:19:06;101253.06;;;21.04;64.56
29371;BME280;16357;52.188;7.838;2023-08-17T08:21:33;101251.56;;;21.09;64.53
29371;BME280;16357;52.188;7.838;2023-08-17T08:23:59;101249.66;;;21.16;64.55
29371;BME280;16357;52.188;7.838;2023-08-17T08:26:26;101262.44;;;21.22;64.41
29371;BME280;16357;52.188;7.838;2023-08-17T08:28:52;101257.81;;;21.29;64.29
29371;BME280;16357;52.188;7.838;2023-08-17T08:31:18;101270.81;;;21.40;64.67
29371;BME280;16357;52.188;7.838;2023-08-17T08:33:45;101269.09;;;21.53;64.64
29371;BME280;16357;52.188;7.838;2023-08-17T08:36:11;101275.34;;;21.66;64.61
29371;BME280;16357;52.188;7.838;2023-08-17T08:38:38;101277.81;;;21.81;64.23
29371;BME280;16357;52.188;7.838;2023-08-17T08:41:05;101279.00;;;21.99;63.89
29371;BME280;16357;52.188;7.838;2023-08-17T08:43:34;101272.16;;;22.14;63.15
29371;BME280;16357;52.188;7.838;2023-08-17T08:46:01;101277.97;;;22.31;62.32
29371;BME280;16357;52.188;7.838;2023-08-17T08:48:29;101270.47;;;22.45;62.50
29371;BME280;16357;52.188;7.838;2023-08-17T08:50:55;101272.53;;;22.56;61.94
29371;BME280;16357;52.188;7.838;2023-08-17T08:53:31;101265.88;;;22.71;61.39
29371;BME280;16357;52.188;7.838;2023-08-17T08:56:02;101258.19;;;22.79;60.38
29371;BME280;16357;52.188;7.838;2023-08-17T08:58:31;101260.06;;;22.86;59.85
29371;BME280;16357;52.188;7.838;2023-08-17T09:00:57;101250.16;;;22.85;59.81
29371;BME280;16357;52.188;7.838;2023-08-17T09:03:25;101242.63;;;22.80;59.66
29371;BME280;16357;52.188;7.838;2023-08-17T09:05:52;101243.31;;;22.75;59.60
29371;BME280;16357;52.188;7.838;2023-08-17T09:08:21;101248.63;;;22.70;59.75
29371;BME280;16357;52.188;7.838;2023-08-17T09:10:51;101254.13;;;22.64;59.86
29371;BME280;16357;52.188;7.838;2023-08-17T09:13:18;101266.59;;;22.60;60.42
29371;BME280;16357;52.188;7.838;2023-08-17T09:15:44;101269.78;;;22.56;60.20
29371;BME280;16357;52.188;7.838;2023-08-17T09:18:17;101276.91;;;22.57;60.55
29371;BME280;16357;52.188;7.838;2023-08-17T09:20:46;101271.44;;;22.57;60.08
29371;BME280;16357;52.188;7.838;2023-08-17T09:23:17;101265.97;;;22.57;59.86
29371;BME280;16357;52.188;7.838;2023-08-17T09:25:46;101260.97;;;22.54;60.05
29371;BME280;16357;52.188;7.838;2023-08-17T09:28:22;101261.16;;;22.53;60.04
29371;BME280;16357;52.188;7.838;2023-08-17T09:30:49;101258.88;;;22.50;60.08
29371;BME280;16357;52.188;7.838;2023-08-17T09:33:18;101253.88;;;22.47;60.29
29371;BME280;16357;52.188;7.838;2023-08-17T09:35:44;101253.25;;;22.45;59.85
29371;BME280;16357;52.188;7.838;2023-08-17T09:38:11;101252.00;;;22.41;60.28
29371;BME280;16357;52.188;7.838;2023-08-17T09:40:37;101250.16;;;22.34;60.49
29371;BME280;16357;52.188;7.838;2023-08-17T09:43:04;101251.44;;;22.32;60.89
29371;BME280;16357;52.188;7.838;2023-08-17T09:45:30;101240.97;;;22.29;60.92
29371;BME280;16357;52.188;7.838;2023-08-17T09:48:00;101254.44;;;22.30;61.24
29371;BME280;16357;52.188;7.838;2023-08-17T09:50:29;101251.69;;;22.30;61.32
29371;BME280;16357;52.188;7.838;2023-08-17T09:52:55;101255.00;;;22.32;61.14
29371;BME280;16357;52.188;7.838;2023-08-17T09:55:22;101252.28;;;22.32;60.79
29371;BME280;16357;52.188;7.838;2023-08-17T09:57:50;101243.03;;;22.33;61.12
29371;BME280;16357;52.188;7.838;2023-08-17T10:00:20;101253.53;;;22.37;61.24
29371;BME280;16357;52.188;7.838;2023-08-17T10:02:50;101249.72;;;22.38;61.37
29371;BME280;16357;52.188;7.838;2023-08-17T10:05:20;101255.81;;;22.40;61.35
29371;BME280;16357;52.188;7.838;2023-08-17T10:07:54;101245.88;;;22.45;61.09
29371;BME280;16357;52.188;7.838;2023-08-17T10:10:23;101257.44;;;22.47;60.73
29371;BME280;16357;52.188;7.838;2023-08-17T10:13:10;101254.50;;;22.49;60.47
29371;BME280;16357;52.188;7.838;2023-08-17T10:15:45;101257.66;;;22.46;60.69
29371;BME280;16357;52.188;7.838;2023-08-17T10:21:07;101254.91;;;22.46;60.98
29371;BME280;16357;52.188;7.838;2023-08-17T10:23:36;101264.81;;;22.47;61.14
29371;BME280;16357;52.188;7.838;2023-08-17T10:26:08;101261.84;;;22.48;61.07
29371;BME280;16357;52.188;7.838;2023-08-17T10:28:35;101262.44;;;22.50;61.13
29371;BME280;16357;52.188;7.838;2023-08-17T10:31:01;101254.03;;;22.52;61.06
29371;BME280;16357;52.188;7.838;2023-08-17T10:33:28;101258.22;;;22.54;61.03
29371;BME280;16357;52.188;7.838;2023-08-17T10:35:55;101248.75;;;22.57;60.61
29371;BME280;16357;52.188;7.838;2023-08-17T10:38:23;101256.50;;;22.60;61.19
29371;BME280;16357;52.188;7.838;2023-08-17T10:41:08;101245.72;;;22.65;61.12
29371;BME280;16357;52.188;7.838;2023-08-17T10:43:56;101251.34;;;22.70;61.10
29371;BME280;16357;52.188;7.838;2023-08-17T10:46:33;101259.72;;;22.75;61.18
29371;BME280;16357;52.188;7.838;2023-08-17T10:49:02;101260.47;;;22.83;60.68
29371;BME280;16357;52.188;7.838;2023-08-17T10:51:30;101266.97;;;22.88;60.53
29371;BME280;16357;52.188;7.838;2023-08-17T10:53:59;101266.06;;;22.94;60.40
29371;BME280;16357;52.188;7.838;2023-08-17T10:56:27;101263.72;;;22.98;60.22
29371;BME280;16357;52.188;7.838;2023-08-17T10:58:59;101260.53;;;23.01;60.23
29371;BME280;16357;52.188;7.838;2023-08-17T11:01:35;101257.59;;;23.03;60.18
29371;BME280;16357;52.188;7.838;2023-08-17T11:04:32;101263.44;;;23.06;60.60
29371;BME280;16357;52.188;7.838;2023-08-17T11:07:01;101253.72;;;23.10;59.99
29371;BME280;16357;52.188;7.838;2023-08-17T11:09:30;101261.47;;;23.13;60.39
29371;BME280;16357;52.188;7.838;2023-08-17T11:12:00;101267.09;;;23.18;59.94
29371;BME280;16357;52.188;7.838;2023-08-17T11:14:32;101253.56;;;23.23;59.84
29371;BME280;16357;52.188;7.838;2023-08-17T11:16:59;101268.25;;;23.29;59.75
29371;BME280;16357;52.188;7.838;2023-08-17T11:19:31;101261.47;;;23.32;59.27
29371;BME280;16357;52.188;7.838;2023-08-17T11:21:57;101263.53;;;23.36;59.32
29371;BME280;16357;52.188;7.838;2023-08-17T11:24:24;101266.28;;;23.36;59.03
29371;BME280;16357;52.188;7.838;2023-08-17T11:26:55;101264.38;;;23.37;59.44
29371;BME280;16357;52.188;7.838;2023-08-17T11:29:21;101262.25;;;23.39;59.33
29371;BME280;16357;52.188;7.838;2023-08-17T11:31:50;101259.25;;;23.40;59.62
29371;BME280;16357;52.188;7.838;2023-08-17T11:34:16;101263.22;;;23.44;59.58
29371;BME280;16357;52.188;7.838;2023-08-17T11:36:43;101251.59;;;23.49;59.33
29371;BME280;16357;52.188;7.838;2023-08-17T11:39:09;101251.75;;;23.54;59.25
29371;BME280;16357;52.188;7.838;2023-08-17T11:41:38;101252.47;;;23.61;58.95
29371;BME280;16357;52.188;7.838;2023-08-17T11:44:04;101253.44;;;23.67;58.77
29371;BME280;16357;52.188;7.838;2023-08-17T11:46:32;101261.03;;;23.72;58.85
29371;BME280;16357;52.188;7.838;2023-08-17T11:48:59;101255.94;;;23.75;58.33
29371;BME280;16357;52.188;7.838;2023-08-17T11:51:32;101250.81;;;23.79;58.06
29371;BME280;16357;52.188;7.838;2023-08-17T11:53:59;101255.22;;;23.80;58.54
29371;BME280;16357;52.188;7.838;2023-08-17T11:56:26;101253.09;;;23.82;57.99
29371;BME280;16357;52.188;7.838;2023-08-17T11:58:52;101242.13;;;23.82;57.91
29371;BME280;16357;52.188;7.838;2023-08-17T12:01:19;101250.72;;;23.85;58.01
29371;BME280;16357;52.188;7.838;2023-08-17T12:03:48;101243.94;;;23.88;58.04
29371;BME280;16357;52.188;7.838;2023-08-17T12:06:16;101243.47;;;23.91;58.17
29371;BME280;16357;52.188;7.838;2023-08-17T12:08:45;101253.88;;;24.01;58.92
29371;BME280;16357;52.188;7.838;2023-08-17T12:11:15;101243.44;;;24.09;58.33
29371;BME280;16357;52.188;7.838;2023-08-17T12:13:42;101242.63;;;24.21;57.58
29371;BME280;16357;52.188;7.838;2023-08-17T12:16:14;101248.09;;;24.32;57.67
29371;BME280;16357;52.188;7.838;2023-08-17T12:18:44;101245.03;;;24.41;56.74
29371;BME280;16357;52.188;7.838;2023-08-17T12:21:10;101239.25;;;24.49;56.45
29371;BME280;16357;52.188;7.838;2023-08-17T12:23:37;101240.19;;;24.55;56.38
29371;BME280;16357;52.188;7.838;2023-08-17T12:26:03;101248.31;;;24.61;55.76
29371;BME280;16357;52.188;7.838;2023-08-17T12:28:29;101244.03;;;24.65;55.70
29371;BME280;16357;52.188;7.838;2023-08-17T12:31:00;101246.88;;;24.70;55.99
29371;BME280;16357;52.188;7.838;2023-08-17T12:33:27;101253.34;;;24.76;56.01
29371;BME280;16357;52.188;7.838;2023-08-17T12:35:54;101246.06;;;24.82;55.96
29371;BME280;16357;52.188;7.838;2023-08-17T12:38:23;101253.09;;;24.89;55.42
29371;BME280;16357;52.188;7.838;2023-08-17T12:40:49;101246.63;;;24.95;55.23
29371;BME280;16357;52.188;7.838;2023-08-17T12:43:16;101249.97;;;24.97;54.32
29371;BME280;16357;52.188;7.838;2023-08-17T12:45:42;101249.38;;;24.95;54.08
29371;BME280;16357;52.188;7.838;2023-08-17T12:48:08;101248.44;;;24.90;54.06
29371;BME280;16357;52.188;7.838;2023-08-17T12:50:35;101245.81;;;24.83;54.37
29371;BME280;16357;52.188;7.838;2023-08-17T12:53:08;101250.34;;;24.78;54.41
29371;BME280;16357;52.188;7.838;2023-08-17T12:55:34;101255.13;;;24.70;54.58